sensor_id;sensor_type;location;lat;lon;timestamp;P1;durP1;ratioP1;P2;durP2;ratioP2
13607;SDS011;6875;50.852;5.672;2023-02-20T00:01:33;11.63;;;8.37;;
13607;SDS011;6875;50.852;5.672;2023-02-20T00:04:00;13.10;;;7.87;;
13607;SDS011;6875;50.852;5.672;2023-02-20T00:06:27;13.07;;;8.83;;
13607;SDS011;6875;50.852;5.672;2023-02-20T00:08:53;15.07;;;8.57;;
13607;SDS011;6875;50.852;5.672;2023-02-20T00:11:20;11.57;;;7.80;;
13607;SDS011;6875;50.852;5.672;2023-02-20T00:13:47;14.73;;;9.13;;
13607;SDS011;6875;50.852;5.672;2023-02-20T00:16:16;14.37;;;8.27;;
13607;SDS011;6875;50.852;5.672;2023-02-20T00:18:43;11.00;;;8.33;;
13607;SDS011;6875;50.852;5.672;2023-02-20T00:21:10;14.07;;;7.80;;
13607;SDS011;6875;50.852;5.672;2023-02-20T00:23:37;14.53;;;8.87;;
13607;SDS011;6875;50.852;5.672;2023-02-20T00:26:03;10.83;;;7.97;;
13607;SDS011;6875;50.852;5.672;2023-02-20T00:28:34;14.37;;;8.33;;
13607;SDS011;6875;50.852;5.672;2023-02-20T00:31:01;13.13;;;8.27;;
13607;SDS011;6875;50.852;5.672;2023-02-20T00:33:29;15.70;;;9.03;;
13607;SDS011;6875;50.852;5.672;2023-02-20T00:35:56;15.23;;;9.10;;
13607;SDS011;6875;50.852;5.672;2023-02-20T00:38:23;16.40;;;9.57;;
13607;SDS011;6875;50.852;5.672;2023-02-20T00:40:49;13.53;;;8.37;;
13607;SDS011;6875;50.852;5.672;2023-02-20T00:43:16;14.00;;;8.87;;
13607;SDS011;6875;50.852;5.672;2023-02-20T00:45:42;11.63;;;6.57;;
13607;SDS011;6875;50.852;5.672;2023-02-20T00:48:09;14.30;;;9.30;;
13607;SDS011;6875;50.852;5.672;2023-02-20T00:50:37;15.27;;;8.97;;
13607;SDS011;6875;50.852;5.672;2023-02-20T00:53:04;18.07;;;9.30;;
13607;SDS011;6875;50.852;5.672;2023-02-20T00:55:30;14.83;;;9.27;;
13607;SDS011;6875;50.852;5.672;2023-02-20T00:57:57;15.63;;;9.40;;
13607;SDS011;6875;50.852;5.672;2023-02-20T01:00:24;17.27;;;9.93;;
13607;SDS011;6875;50.852;5.672;2023-02-20T01:02:53;15.33;;;10.03;;
13607;SDS011;6875;50.852;5.672;2023-02-20T01:05:20;16.90;;;10.33;;
13607;SDS011;6875;50.852;5.672;2023-02-20T01:07:48;18.40;;;9.70;;
13607;SDS011;6875;50.852;5.672;2023-02-20T01:10:16;13.60;;;9.03;;
13607;SDS011;6875;50.852;5.672;2023-02-20T01:12:43;13.17;;;9.57;;
13607;SDS011;6875;50.852;5.672;2023-02-20T01:15:10;12.87;;;9.60;;
13607;SDS011;6875;50.852;5.672;2023-02-20T01:17:37;18.63;;;9.70;;
13607;SDS011;6875;50.852;5.672;2023-02-20T01:20:04;23.03;;;10.47;;
13607;SDS011;6875;50.852;5.672;2023-02-20T01:22:32;15.70;;;9.30;;
13607;SDS011;6875;50.852;5.672;2023-02-20T01:25:00;15.90;;;10.83;;
13607;SDS011;6875;50.852;5.672;2023-02-20T01:27:27;20.47;;;11.20;;
13607;SDS011;6875;50.852;5.672;2023-02-20T01:29:54;14.83;;;9.87;;
13607;SDS011;6875;50.852;5.672;2023-02-20T01:32:20;17.40;;;10.90;;
13607;SDS011;6875;50.852;5.672;2023-02-20T01:34:47;17.67;;;10.73;;
13607;SDS011;6875;50.852;5.672;2023-02-20T01:37:15;16.57;;;10.93;;
13607;SDS011;6875;50.852;5.672;2023-02-20T01:39:45;18.27;;;11.93;;
13607;SDS011;6875;50.852;5.672;2023-02-20T01:42:15;20.57;;;11.87;;
13607;SDS011;6875;50.852;5.672;2023-02-20T01:44:44;18.27;;;11.07;;
13607;SDS011;6875;50.852;5.672;2023-02-20T01:47:11;20.20;;;12.30;;
13607;SDS011;6875;50.852;5.672;2023-02-20T01:49:42;21.50;;;11.67;;
13607;SDS011;6875;50.852;5.672;2023-02-20T01:52:12;18.43;;;12.23;;
13607;SDS011;6875;50.852;5.672;2023-02-20T01:54:41;21.10;;;12.40;;
13607;SDS011;6875;50.852;5.672;2023-02-20T01:57:11;19.40;;;11.90;;
13607;SDS011;6875;50.852;5.672;2023-02-20T01:59:42;21.50;;;12.20;;
13607;SDS011;6875;50.852;5.672;2023-02-20T02:02:09;22.53;;;12.83;;
13607;SDS011;6875;50.852;5.672;2023-02-20T02:04:36;21.43;;;12.87;;
13607;SDS011;6875;50.852;5.672;2023-02-20T02:07:04;22.50;;;12.53;;
13607;SDS011;6875;50.852;5.672;2023-02-20T02:09:33;22.43;;;12.90;;
13607;SDS011;6875;50.852;5.672;2023-02-20T02:12:04;23.50;;;13.13;;
13607;SDS011;6875;50.852;5.672;2023-02-20T02:14:32;25.60;;;14.27;;
13607;SDS011;6875;50.852;5.672;2023-02-20T02:17:04;23.83;;;12.90;;
13607;SDS011;6875;50.852;5.672;2023-02-20T02:20:00;23.30;;;13.07;;
13607;SDS011;6875;50.852;5.672;2023-02-20T02:22:45;26.60;;;14.23;;
13607;SDS011;6875;50.852;5.672;2023-02-20T02:25:36;23.77;;;14.33;;
13607;SDS011;6875;50.852;5.672;2023-02-20T02:31:33;30.03;;;14.97;;
13607;SDS011;6875;50.852;5.672;2023-02-20T02:37:29;26.20;;;15.77;;
13607;SDS011;6875;50.852;5.672;2023-02-20T02:39:58;32.17;;;16.20;;
13607;SDS011;6875;50.852;5.672;2023-02-20T02:42:32;27.70;;;15.27;;
13607;SDS011;6875;50.852;5.672;2023-02-20T02:45:08;29.00;;;16.63;;
13607;SDS011;6875;50.852;5.672;2023-02-20T02:47:40;33.33;;;16.23;;
13607;SDS011;6875;50.852;5.672;2023-02-20T02:50:11;37.73;;;18.40;;
13607;SDS011;6875;50.852;5.672;2023-02-20T02:52:44;33.40;;;19.17;;
13607;SDS011;6875;50.852;5.672;2023-02-20T02:55:16;31.53;;;18.57;;
13607;SDS011;6875;50.852;5.672;2023-02-20T02:57:44;38.03;;;21.30;;
13607;SDS011;6875;50.852;5.672;2023-02-20T03:00:12;36.37;;;20.80;;
13607;SDS011;6875;50.852;5.672;2023-02-20T03:02:41;40.93;;;22.00;;
13607;SDS011;6875;50.852;5.672;2023-02-20T03:05:12;40.00;;;23.90;;
13607;SDS011;6875;50.852;5.672;2023-02-20T03:07:41;41.57;;;23.60;;
13607;SDS011;6875;50.852;5.672;2023-02-20T03:10:12;44.87;;;26.07;;
13607;SDS011;6875;50.852;5.672;2023-02-20T03:12:45;50.23;;;26.20;;
13607;SDS011;6875;50.852;5.672;2023-02-20T03:15:16;46.90;;;29.17;;
13607;SDS011;6875;50.852;5.672;2023-02-20T03:18:02;46.50;;;24.67;;
13607;SDS011;6875;50.852;5.672;2023-02-20T03:20:37;46.53;;;27.73;;
13607;SDS011;6875;50.852;5.672;2023-02-20T03:23:06;55.33;;;30.23;;
13607;SDS011;6875;50.852;5.672;2023-02-20T03:25:34;54.53;;;28.27;;
13607;SDS011;6875;50.852;5.672;2023-02-20T03:28:04;49.33;;;28.37;;
13607;SDS011;6875;50.852;5.672;2023-02-20T03:30:33;58.40;;;29.07;;
13607;SDS011;6875;50.852;5.672;2023-02-20T03:33:03;57.37;;;32.27;;
13607;SDS011;6875;50.852;5.672;2023-02-20T03:35:51;55.00;;;30.87;;
13607;SDS011;6875;50.852;5.672;2023-02-20T03:38:38;63.87;;;32.57;;
13607;SDS011;6875;50.852;5.672;2023-02-20T03:41:24;66.73;;;34.03;;
13607;SDS011;6875;50.852;5.672;2023-02-20T03:44:10;53.93;;;34.10;;
13607;SDS011;6875;50.852;5.672;2023-02-20T03:46:38;62.27;;;35.37;;
13607;SDS011;6875;50.852;5.672;2023-02-20T03:49:07;53.47;;;32.60;;
13607;SDS011;6875;50.852;5.672;2023-02-20T03:51:53;55.07;;;33.40;;
13607;SDS011;6875;50.852;5.672;2023-02-20T03:54:24;55.07;;;32.47;;
13607;SDS011;6875;50.852;5.672;2023-02-20T03:56:52;56.87;;;32.63;;
13607;SDS011;6875;50.852;5.672;2023-02-20T03:59:21;55.73;;;30.80;;
13607;SDS011;6875;50.852;5.672;2023-02-20T04:01:49;61.83;;;34.73;;
13607;SDS011;6875;50.852;5.672;2023-02-20T04:04:19;49.13;;;30.63;;
13607;SDS011;6875;50.852;5.672;2023-02-20T04:06:49;60.67;;;31.43;;
13607;SDS011;6875;50.852;5.672;2023-02-20T04:09:17;57.73;;;31.87;;
13607;SDS011;6875;50.852;5.672;2023-02-20T04:11:47;55.50;;;28.83;;
13607;SDS011;6875;50.852;5.672;2023-02-20T04:14:16;53.20;;;29.17;;
13607;SDS011;6875;50.852;5.672;2023-02-20T04:16:46;56.40;;;29.37;;
13607;SDS011;6875;50.852;5.672;2023-02-20T04:19:14;50.07;;;30.00;;
13607;SDS011;6875;50.852;5.672;2023-02-20T04:21:42;53.40;;;30.87;;
13607;SDS011;6875;50.852;5.672;2023-02-20T04:24:11;49.53;;;28.30;;
13607;SDS011;6875;50.852;5.672;2023-02-20T04:26:40;53.20;;;29.87;;
13607;SDS011;6875;50.852;5.672;2023-02-20T04:29:08;48.57;;;28.67;;
13607;SDS011;6875;50.852;5.672;2023-02-20T04:31:34;51.33;;;28.93;;
13607;SDS011;6875;50.852;5.672;2023-02-20T04:34:01;54.53;;;30.97;;
13607;SDS011;6875;50.852;5.672;2023-02-20T04:36:28;51.80;;;28.87;;
13607;SDS011;6875;50.852;5.672;2023-02-20T04:38:54;43.57;;;27.43;;
13607;SDS011;6875;50.852;5.672;2023-02-20T04:41:21;42.87;;;25.60;;
13607;SDS011;6875;50.852;5.672;2023-02-20T04:43:47;39.27;;;25.73;;
13607;SDS011;6875;50.852;5.672;2023-02-20T04:46:35;49.83;;;27.23;;
13607;SDS011;6875;50.852;5.672;2023-02-20T04:49:02;44.87;;;25.57;;
13607;SDS011;6875;50.852;5.672;2023-02-20T04:51:29;41.77;;;24.30;;
13607;SDS011;6875;50.852;5.672;2023-02-20T04:53:56;44.37;;;24.43;;
13607;SDS011;6875;50.852;5.672;2023-02-20T04:56:22;42.10;;;21.57;;
13607;SDS011;6875;50.852;5.672;2023-02-20T04:58:49;41.13;;;23.07;;
13607;SDS011;6875;50.852;5.672;2023-02-20T05:01:16;40.03;;;20.57;;
13607;SDS011;6875;50.852;5.672;2023-02-20T05:03:44;32.30;;;20.13;;
13607;SDS011;6875;50.852;5.672;2023-02-20T05:06:10;32.27;;;20.67;;
13607;SDS011;6875;50.852;5.672;2023-02-20T05:08:37;34.03;;;19.53;;
13607;SDS011;6875;50.852;5.672;2023-02-20T05:11:04;37.03;;;20.30;;
13607;SDS011;6875;50.852;5.672;2023-02-20T05:13:30;32.20;;;19.00;;
13607;SDS011;6875;50.852;5.672;2023-02-20T05:15:57;32.10;;;18.03;;
13607;SDS011;6875;50.852;5.672;2023-02-20T05:18:24;41.10;;;19.87;;
13607;SDS011;6875;50.852;5.672;2023-02-20T05:20:52;35.80;;;19.20;;
13607;SDS011;6875;50.852;5.672;2023-02-20T05:23:39;40.83;;;19.93;;
13607;SDS011;6875;50.852;5.672;2023-02-20T05:26:07;37.37;;;19.87;;
13607;SDS011;6875;50.852;5.672;2023-02-20T05:28:34;31.83;;;18.13;;
13607;SDS011;6875;50.852;5.672;2023-02-20T05:31:01;36.67;;;18.30;;
13607;SDS011;6875;50.852;5.672;2023-02-20T05:33:28;38.03;;;17.20;;
13607;SDS011;6875;50.852;5.672;2023-02-20T05:35:56;32.87;;;18.50;;
13607;SDS011;6875;50.852;5.672;2023-02-20T05:38:22;36.30;;;19.40;;
13607;SDS011;6875;50.852;5.672;2023-02-20T05:40:49;37.80;;;20.00;;
13607;SDS011;6875;50.852;5.672;2023-02-20T05:43:16;35.07;;;17.50;;
13607;SDS011;6875;50.852;5.672;2023-02-20T05:45:42;40.20;;;18.63;;
13607;SDS011;6875;50.852;5.672;2023-02-20T05:48:10;33.13;;;16.87;;
13607;SDS011;6875;50.852;5.672;2023-02-20T05:50:36;34.33;;;16.70;;
13607;SDS011;6875;50.852;5.672;2023-02-20T05:53:05;39.03;;;17.30;;
13607;SDS011;6875;50.852;5.672;2023-02-20T05:55:31;36.77;;;18.23;;
13607;SDS011;6875;50.852;5.672;2023-02-20T05:57:58;34.93;;;17.90;;
13607;SDS011;6875;50.852;5.672;2023-02-20T06:00:25;31.73;;;16.73;;
13607;SDS011;6875;50.852;5.672;2023-02-20T06:02:51;35.23;;;18.00;;
13607;SDS011;6875;50.852;5.672;2023-02-20T06:05:18;30.67;;;17.90;;
13607;SDS011;6875;50.852;5.672;2023-02-20T06:07:45;32.33;;;17.13;;
13607;SDS011;6875;50.852;5.672;2023-02-20T06:10:15;32.50;;;16.90;;
13607;SDS011;6875;50.852;5.672;2023-02-20T06:12:44;27.50;;;16.47;;
13607;SDS011;6875;50.852;5.672;2023-02-20T06:15:10;30.93;;;17.33;;
13607;SDS011;6875;50.852;5.672;2023-02-20T06:17:37;29.23;;;15.90;;
13607;SDS011;6875;50.852;5.672;2023-02-20T06:20:04;29.27;;;16.83;;
13607;SDS011;6875;50.852;5.672;2023-02-20T06:22:31;31.87;;;17.87;;
13607;SDS011;6875;50.852;5.672;2023-02-20T06:24:57;35.73;;;17.20;;
13607;SDS011;6875;50.852;5.672;2023-02-20T06:27:27;37.83;;;17.93;;
13607;SDS011;6875;50.852;5.672;2023-02-20T06:29:53;30.53;;;17.53;;
13607;SDS011;6875;50.852;5.672;2023-02-20T06:32:20;32.13;;;16.33;;
13607;SDS011;6875;50.852;5.672;2023-02-20T06:34:46;34.13;;;18.70;;
13607;SDS011;6875;50.852;5.672;2023-02-20T06:37:13;29.57;;;17.17;;
13607;SDS011;6875;50.852;5.672;2023-02-20T06:39:40;26.87;;;15.80;;
13607;SDS011;6875;50.852;5.672;2023-02-20T06:42:09;41.40;;;18.87;;
13607;SDS011;6875;50.852;5.672;2023-02-20T06:44:38;35.23;;;18.70;;
13607;SDS011;6875;50.852;5.672;2023-02-20T06:47:04;32.23;;;16.80;;
13607;SDS011;6875;50.852;5.672;2023-02-20T06:49:33;43.10;;;20.77;;
13607;SDS011;6875;50.852;5.672;2023-02-20T06:51:59;31.43;;;17.43;;
13607;SDS011;6875;50.852;5.672;2023-02-20T06:54:26;29.33;;;15.40;;
13607;SDS011;6875;50.852;5.672;2023-02-20T06:56:52;29.07;;;17.20;;
13607;SDS011;6875;50.852;5.672;2023-02-20T06:59:21;29.40;;;16.40;;
13607;SDS011;6875;50.852;5.672;2023-02-20T07:01:49;33.00;;;19.87;;
13607;SDS011;6875;50.852;5.672;2023-02-20T07:04:17;30.13;;;18.53;;
13607;SDS011;6875;50.852;5.672;2023-02-20T07:06:45;34.27;;;17.33;;
13607;SDS011;6875;50.852;5.672;2023-02-20T07:09:12;30.20;;;18.07;;
13607;SDS011;6875;50.852;5.672;2023-02-20T07:11:39;32.50;;;18.17;;
13607;SDS011;6875;50.852;5.672;2023-02-20T07:14:05;26.13;;;18.13;;
13607;SDS011;6875;50.852;5.672;2023-02-20T07:16:33;33.83;;;18.23;;
13607;SDS011;6875;50.852;5.672;2023-02-20T07:19:01;30.63;;;18.27;;
13607;SDS011;6875;50.852;5.672;2023-02-20T07:21:28;35.57;;;19.37;;
13607;SDS011;6875;50.852;5.672;2023-02-20T07:23:54;35.20;;;19.57;;
13607;SDS011;6875;50.852;5.672;2023-02-20T07:26:22;31.33;;;18.10;;
13607;SDS011;6875;50.852;5.672;2023-02-20T07:28:49;38.50;;;19.80;;
13607;SDS011;6875;50.852;5.672;2023-02-20T07:31:17;34.10;;;17.37;;
13607;SDS011;6875;50.852;5.672;2023-02-20T07:33:43;31.70;;;17.30;;
13607;SDS011;6875;50.852;5.672;2023-02-20T07:36:12;36.47;;;18.13;;
13607;SDS011;6875;50.852;5.672;2023-02-20T07:38:39;34.23;;;20.30;;
13607;SDS011;6875;50.852;5.672;2023-02-20T07:41:07;33.27;;;18.97;;
13607;SDS011;6875;50.852;5.672;2023-02-20T07:43:37;36.13;;;18.13;;
13607;SDS011;6875;50.852;5.672;2023-02-20T07:46:03;34.20;;;19.37;;
13607;SDS011;6875;50.852;5.672;2023-02-20T07:48:30;29.70;;;16.90;;
13607;SDS011;6875;50.852;5.672;2023-02-20T07:50:58;30.60;;;16.20;;
13607;SDS011;6875;50.852;5.672;2023-02-20T07:53:26;35.67;;;17.93;;
13607;SDS011;6875;50.852;5.672;2023-02-20T07:55:53;31.13;;;18.43;;
13607;SDS011;6875;50.852;5.672;2023-02-20T07:58:20;30.00;;;18.10;;
13607;SDS011;6875;50.852;5.672;2023-02-20T08:00:47;31.53;;;17.80;;
13607;SDS011;6875;50.852;5.672;2023-02-20T08:03:15;32.20;;;17.93;;
13607;SDS011;6875;50.852;5.672;2023-02-20T08:05:42;29.60;;;18.20;;
13607;SDS011;6875;50.852;5.672;2023-02-20T08:08:10;34.67;;;18.23;;
13607;SDS011;6875;50.852;5.672;2023-02-20T08:10:38;31.03;;;16.40;;
13607;SDS011;6875;50.852;5.672;2023-02-20T08:13:04;32.60;;;16.70;;
13607;SDS011;6875;50.852;5.672;2023-02-20T08:15:31;25.57;;;16.33;;
13607;SDS011;6875;50.852;5.672;2023-02-20T08:17:58;37.70;;;18.17;;
13607;SDS011;6875;50.852;5.672;2023-02-20T08:20:24;33.73;;;17.53;;
13607;SDS011;6875;50.852;5.672;2023-02-20T08:22:51;35.97;;;18.37;;
13607;SDS011;6875;50.852;5.672;2023-02-20T08:25:18;32.53;;;17.37;;
13607;SDS011;6875;50.852;5.672;2023-02-20T08:27:47;28.37;;;14.63;;
13607;SDS011;6875;50.852;5.672;2023-02-20T08:30:15;31.43;;;17.43;;
13607;SDS011;6875;50.852;5.672;2023-02-20T08:32:43;27.53;;;14.90;;
13607;SDS011;6875;50.852;5.672;2023-02-20T08:35:10;29.20;;;16.47;;
13607;SDS011;6875;50.852;5.672;2023-02-20T08:37:37;32.07;;;16.77;;
13607;SDS011;6875;50.852;5.672;2023-02-20T08:40:04;33.77;;;15.07;;
13607;SDS011;6875;50.852;5.672;2023-02-20T08:42:32;31.73;;;14.93;;
13607;SDS011;6875;50.852;5.672;2023-02-20T08:45:02;29.70;;;16.37;;
13607;SDS011;6875;50.852;5.672;2023-02-20T08:47:29;28.90;;;15.83;;
13607;SDS011;6875;50.852;5.672;2023-02-20T08:49:55;27.53;;;16.20;;
13607;SDS011;6875;50.852;5.672;2023-02-20T08:52:22;24.00;;;15.57;;
13607;SDS011;6875;50.852;5.672;2023-02-20T08:54:48;26.23;;;15.93;;
13607;SDS011;6875;50.852;5.672;2023-02-20T08:57:15;31.53;;;15.33;;
13607;SDS011;6875;50.852;5.672;2023-02-20T08:59:42;28.03;;;15.33;;
13607;SDS011;6875;50.852;5.672;2023-02-20T09:02:16;30.33;;;17.27;;
13607;SDS011;6875;50.852;5.672;2023-02-20T09:04:44;35.50;;;17.10;;
13607;SDS011;6875;50.852;5.672;2023-02-20T09:07:11;25.53;;;15.37;;
13607;SDS011;6875;50.852;5.672;2023-02-20T09:09:38;29.27;;;16.03;;
13607;SDS011;6875;50.852;5.672;2023-02-20T09:12:05;32.87;;;16.57;;
13607;SDS011;6875;50.852;5.672;2023-02-20T09:14:32;32.50;;;15.43;;
13607;SDS011;6875;50.852;5.672;2023-02-20T09:16:59;35.00;;;17.07;;
13607;SDS011;6875;50.852;5.672;2023-02-20T09:19:28;39.67;;;17.43;;
13607;SDS011;6875;50.852;5.672;2023-02-20T09:21:54;30.50;;;16.77;;
13607;SDS011;6875;50.852;5.672;2023-02-20T09:24:21;26.47;;;17.67;;
13607;SDS011;6875;50.852;5.672;2023-02-20T09:26:52;26.27;;;15.77;;
13607;SDS011;6875;50.852;5.672;2023-02-20T09:29:18;24.30;;;16.17;;
13607;SDS011;6875;50.852;5.672;2023-02-20T09:31:45;27.17;;;15.50;;
13607;SDS011;6875;50.852;5.672;2023-02-20T09:34:12;29.70;;;15.83;;
13607;SDS011;6875;50.852;5.672;2023-02-20T09:36:40;33.73;;;17.13;;
13607;SDS011;6875;50.852;5.672;2023-02-20T09:39:06;29.63;;;15.70;;
13607;SDS011;6875;50.852;5.672;2023-02-20T09:41:40;29.90;;;16.03;;
13607;SDS011;6875;50.852;5.672;2023-02-20T09:44:14;25.87;;;15.97;;
13607;SDS011;6875;50.852;5.672;2023-02-20T09:46:44;24.37;;;15.60;;
13607;SDS011;6875;50.852;5.672;2023-02-20T09:49:14;25.67;;;15.93;;
13607;SDS011;6875;50.852;5.672;2023-02-20T09:51:43;32.00;;;16.73;;
13607;SDS011;6875;50.852;5.672;2023-02-20T09:54:12;28.83;;;15.17;;
13607;SDS011;6875;50.852;5.672;2023-02-20T09:56:48;23.33;;;15.20;;
13607;SDS011;6875;50.852;5.672;2023-02-20T09:59:17;26.07;;;15.53;;
13607;SDS011;6875;50.852;5.672;2023-02-20T10:01:50;27.60;;;15.20;;
13607;SDS011;6875;50.852;5.672;2023-02-20T10:04:19;27.40;;;14.93;;
13607;SDS011;6875;50.852;5.672;2023-02-20T10:06:48;29.73;;;14.63;;
13607;SDS011;6875;50.852;5.672;2023-02-20T10:09:18;28.40;;;14.40;;
13607;SDS011;6875;50.852;5.672;2023-02-20T10:11:47;24.80;;;13.70;;
13607;SDS011;6875;50.852;5.672;2023-02-20T10:14:22;29.67;;;15.00;;
13607;SDS011;6875;50.852;5.672;2023-02-20T10:16:56;24.67;;;14.00;;
13607;SDS011;6875;50.852;5.672;2023-02-20T10:19:31;29.73;;;15.03;;
13607;SDS011;6875;50.852;5.672;2023-02-20T10:22:04;32.03;;;15.70;;
13607;SDS011;6875;50.852;5.672;2023-02-20T10:24:38;26.70;;;14.60;;
13607;SDS011;6875;50.852;5.672;2023-02-20T10:27:15;31.13;;;12.50;;
13607;SDS011;6875;50.852;5.672;2023-02-20T10:29:47;24.37;;;13.73;;
13607;SDS011;6875;50.852;5.672;2023-02-20T10:32:18;31.90;;;14.80;;
13607;SDS011;6875;50.852;5.672;2023-02-20T10:34:49;22.93;;;13.60;;
13607;SDS011;6875;50.852;5.672;2023-02-20T10:37:23;24.40;;;13.00;;
13607;SDS011;6875;50.852;5.672;2023-02-20T10:39:52;24.27;;;14.30;;
13607;SDS011;6875;50.852;5.672;2023-02-20T10:42:22;24.57;;;14.37;;
13607;SDS011;6875;50.852;5.672;2023-02-20T10:44:55;28.87;;;13.60;;
13607;SDS011;6875;50.852;5.672;2023-02-20T10:47:27;26.87;;;12.63;;
13607;SDS011;6875;50.852;5.672;2023-02-20T10:49:56;32.93;;;13.57;;
13607;SDS011;6875;50.852;5.672;2023-02-20T10:52:27;29.70;;;12.90;;
13607;SDS011;6875;50.852;5.672;2023-02-20T10:54:59;26.50;;;13.73;;
13607;SDS011;6875;50.852;5.672;2023-02-20T10:57:32;29.60;;;13.53;;
13607;SDS011;6875;50.852;5.672;2023-02-20T11:00:02;26.50;;;12.53;;
13607;SDS011;6875;50.852;5.672;2023-02-20T11:02:33;28.97;;;13.43;;
13607;SDS011;6875;50.852;5.672;2023-02-20T11:05:02;24.93;;;12.00;;
13607;SDS011;6875;50.852;5.672;2023-02-20T11:07:33;23.17;;;11.70;;
13607;SDS011;6875;50.852;5.672;2023-02-20T11:10:00;26.83;;;12.63;;
13607;SDS011;6875;50.852;5.672;2023-02-20T11:12:28;16.83;;;9.80;;
13607;SDS011;6875;50.852;5.672;2023-02-20T11:14:56;30.70;;;10.37;;
13607;SDS011;6875;50.852;5.672;2023-02-20T11:17:25;17.17;;;9.40;;
13607;SDS011;6875;50.852;5.672;2023-02-20T11:19:53;21.10;;;9.57;;
13607;SDS011;6875;50.852;5.672;2023-02-20T11:25:15;16.97;;;9.23;;
13607;SDS011;6875;50.852;5.672;2023-02-20T11:27:46;18.53;;;9.70;;
13607;SDS011;6875;50.852;5.672;2023-02-20T11:30:21;20.37;;;8.20;;
13607;SDS011;6875;50.852;5.672;2023-02-20T11:33:01;16.83;;;7.03;;
13607;SDS011;6875;50.852;5.672;2023-02-20T11:35:31;18.40;;;8.13;;
13607;SDS011;6875;50.852;5.672;2023-02-20T11:38:22;19.07;;;6.97;;
13607;SDS011;6875;50.852;5.672;2023-02-20T11:40:59;21.77;;;8.70;;
13607;SDS011;6875;50.852;5.672;2023-02-20T11:43:29;13.87;;;6.53;;
13607;SDS011;6875;50.852;5.672;2023-02-20T11:46:05;19.90;;;7.07;;
13607;SDS011;6875;50.852;5.672;2023-02-20T11:48:33;11.87;;;6.80;;
13607;SDS011;6875;50.852;5.672;2023-02-20T11:50:59;12.57;;;6.73;;
13607;SDS011;6875;50.852;5.672;2023-02-20T11:53:28;13.10;;;5.90;;
13607;SDS011;6875;50.852;5.672;2023-02-20T11:56:06;12.23;;;5.60;;
13607;SDS011;6875;50.852;5.672;2023-02-20T11:58:35;10.23;;;5.40;;
13607;SDS011;6875;50.852;5.672;2023-02-20T12:01:02;11.07;;;6.07;;
13607;SDS011;6875;50.852;5.672;2023-02-20T12:03:29;14.27;;;6.60;;
13607;SDS011;6875;50.852;5.672;2023-02-20T12:05:58;12.63;;;5.90;;
13607;SDS011;6875;50.852;5.672;2023-02-20T12:08:33;11.40;;;6.73;;
13607;SDS011;6875;50.852;5.672;2023-02-20T12:11:05;14.47;;;6.17;;
13607;SDS011;6875;50.852;5.672;2023-02-20T12:13:35;15.70;;;5.60;;
13607;SDS011;6875;50.852;5.672;2023-02-20T12:16:06;19.27;;;6.10;;
13607;SDS011;6875;50.852;5.672;2023-02-20T12:18:42;16.43;;;5.27;;
13607;SDS011;6875;50.852;5.672;2023-02-20T12:21:13;17.87;;;5.57;;
13607;SDS011;6875;50.852;5.672;2023-02-20T12:23:47;18.00;;;5.90;;
13607;SDS011;6875;50.852;5.672;2023-02-20T12:26:33;14.37;;;5.20;;
13607;SDS011;6875;50.852;5.672;2023-02-20T12:29:09;9.07;;;4.90;;
13607;SDS011;6875;50.852;5.672;2023-02-20T12:31:45;10.67;;;4.87;;
13607;SDS011;6875;50.852;5.672;2023-02-20T12:34:26;9.40;;;4.60;;
13607;SDS011;6875;50.852;5.672;2023-02-20T12:37:02;11.23;;;4.97;;
13607;SDS011;6875;50.852;5.672;2023-02-20T12:39:41;10.93;;;4.97;;
13607;SDS011;6875;50.852;5.672;2023-02-20T12:42:15;12.60;;;5.30;;
13607;SDS011;6875;50.852;5.672;2023-02-20T12:45:09;10.53;;;6.00;;
13607;SDS011;6875;50.852;5.672;2023-02-20T12:47:55;10.73;;;6.33;;
13607;SDS011;6875;50.852;5.672;2023-02-20T12:53:27;13.40;;;6.80;;
13607;SDS011;6875;50.852;5.672;2023-02-20T12:56:07;12.10;;;7.30;;
13607;SDS011;6875;50.852;5.672;2023-02-20T12:58:43;15.93;;;8.27;;
13607;SDS011;6875;50.852;5.672;2023-02-20T13:01:14;19.27;;;9.20;;
13607;SDS011;6875;50.852;5.672;2023-02-20T13:03:44;17.83;;;9.97;;
13607;SDS011;6875;50.852;5.672;2023-02-20T13:06:17;15.57;;;10.73;;
13607;SDS011;6875;50.852;5.672;2023-02-20T13:08:52;17.40;;;11.50;;
13607;SDS011;6875;50.852;5.672;2023-02-20T13:11:23;19.80;;;12.13;;
13607;SDS011;6875;50.852;5.672;2023-02-20T13:13:55;22.77;;;13.93;;
13607;SDS011;6875;50.852;5.672;2023-02-20T13:16:29;21.10;;;13.73;;
13607;SDS011;6875;50.852;5.672;2023-02-20T13:18:58;22.07;;;13.07;;
13607;SDS011;6875;50.852;5.672;2023-02-20T13:21:29;19.43;;;13.07;;
13607;SDS011;6875;50.852;5.672;2023-02-20T13:24:25;22.53;;;14.07;;
13607;SDS011;6875;50.852;5.672;2023-02-20T13:26:54;22.23;;;11.80;;
13607;SDS011;6875;50.852;5.672;2023-02-20T13:29:22;17.60;;;12.03;;
13607;SDS011;6875;50.852;5.672;2023-02-20T13:31:52;19.00;;;13.73;;
13607;SDS011;6875;50.852;5.672;2023-02-20T13:34:26;14.77;;;11.87;;
13607;SDS011;6875;50.852;5.672;2023-02-20T13:36:57;14.57;;;10.90;;
13607;SDS011;6875;50.852;5.672;2023-02-20T13:39:25;15.63;;;11.00;;
13607;SDS011;6875;50.852;5.672;2023-02-20T13:42:27;14.73;;;10.93;;
13607;SDS011;6875;50.852;5.672;2023-02-20T13:44:57;17.77;;;12.03;;
13607;SDS011;6875;50.852;5.672;2023-02-20T13:47:29;17.13;;;11.73;;
13607;SDS011;6875;50.852;5.672;2023-02-20T13:50:00;18.77;;;11.33;;
13607;SDS011;6875;50.852;5.672;2023-02-20T13:52:32;16.07;;;12.80;;
13607;SDS011;6875;50.852;5.672;2023-02-20T13:55:04;17.80;;;12.07;;
13607;SDS011;6875;50.852;5.672;2023-02-20T13:57:44;17.03;;;10.97;;
13607;SDS011;6875;50.852;5.672;2023-02-20T14:00:14;14.03;;;10.30;;
13607;SDS011;6875;50.852;5.672;2023-02-20T14:02:47;17.33;;;9.63;;
13607;SDS011;6875;50.852;5.672;2023-02-20T14:05:17;16.97;;;10.23;;
13607;SDS011;6875;50.852;5.672;2023-02-20T14:07:45;15.10;;;10.03;;
13607;SDS011;6875;50.852;5.672;2023-02-20T14:10:16;14.43;;;10.23;;
13607;SDS011;6875;50.852;5.672;2023-02-20T14:12:53;13.10;;;10.20;;
13607;SDS011;6875;50.852;5.672;2023-02-20T14:15:22;14.57;;;10.83;;
13607;SDS011;6875;50.852;5.672;2023-02-20T14:17:49;16.23;;;11.03;;
13607;SDS011;6875;50.852;5.672;2023-02-20T14:20:18;18.10;;;11.43;;
13607;SDS011;6875;50.852;5.672;2023-02-20T14:22:48;26.83;;;13.83;;
13607;SDS011;6875;50.852;5.672;2023-02-20T14:25:31;24.67;;;15.63;;
13607;SDS011;6875;50.852;5.672;2023-02-20T14:28:10;23.60;;;16.47;;
13607;SDS011;6875;50.852;5.672;2023-02-20T14:30:38;25.57;;;19.10;;
13607;SDS011;6875;50.852;5.672;2023-02-20T14:33:10;29.30;;;18.23;;
13607;SDS011;6875;50.852;5.672;2023-02-20T14:35:48;25.93;;;17.80;;
13607;SDS011;6875;50.852;5.672;2023-02-20T14:38:27;27.53;;;18.67;;
13607;SDS011;6875;50.852;5.672;2023-02-20T14:40:59;28.43;;;18.93;;
13607;SDS011;6875;50.852;5.672;2023-02-20T14:43:27;30.23;;;17.97;;
13607;SDS011;6875;50.852;5.672;2023-02-20T14:45:58;25.17;;;17.57;;
13607;SDS011;6875;50.852;5.672;2023-02-20T14:48:26;25.80;;;17.70;;
13607;SDS011;6875;50.852;5.672;2023-02-20T14:51:08;26.20;;;17.53;;
13607;SDS011;6875;50.852;5.672;2023-02-20T14:53:39;28.70;;;19.67;;
13607;SDS011;6875;50.852;5.672;2023-02-20T14:56:10;29.73;;;18.83;;
13607;SDS011;6875;50.852;5.672;2023-02-20T14:58:39;28.23;;;18.47;;
13607;SDS011;6875;50.852;5.672;2023-02-20T15:01:12;26.37;;;17.43;;
13607;SDS011;6875;50.852;5.672;2023-02-20T15:03:40;27.53;;;16.83;;
13607;SDS011;6875;50.852;5.672;2023-02-20T15:06:09;23.70;;;17.13;;
13607;SDS011;6875;50.852;5.672;2023-02-20T15:08:39;24.20;;;17.17;;